createdAt,value
2019-02-18T00:00:32.049Z,13.70
2019-02-18T00:02:58.361Z,13.68
2019-02-18T00:05:24.669Z,13.62
2019-02-18T00:07:50.983Z,13.60
2019-02-18T00:10:17.294Z,13.59
2019-02-18T00:12:43.615Z,13.56
2019-02-18T00:15:09.916Z,13.54
2019-02-18T00:17:36.229Z,13.53
2019-02-18T00:20:02.541Z,13.50
2019-02-18T00:22:28.857Z,13.47
2019-02-18T00:24:55.169Z,13.44
2019-02-18T00:27:21.477Z,13.40
2019-02-18T00:29:47.784Z,13.38
2019-02-18T00:32:14.121Z,13.36
2019-02-18T00:34:40.433Z,13.33
2019-02-18T00:37:06.740Z,13.31
2019-02-18T00:39:33.050Z,13.26
2019-02-18T00:41:59.361Z,13.26
2019-02-18T00:44:25.667Z,13.24
2019-02-18T00:46:51.979Z,13.20
2019-02-18T00:49:18.291Z,13.19
2019-02-18T00:51:44.606Z,13.18
2019-02-18T00:54:10.913Z,13.14
2019-02-18T00:56:37.224Z,13.12
2019-02-18T00:59:03.533Z,13.11
2019-02-18T01:01:29.847Z,13.10
2019-02-18T01:03:56.152Z,13.06
2019-02-18T01:06:22.466Z,13.01
2019-02-18T01:08:48.777Z,13.00
2019-02-18T01:11:15.084Z,12.91
2019-02-18T01:13:41.396Z,12.86
2019-02-18T01:16:07.709Z,12.78
2019-02-18T01:18:34.012Z,12.75
2019-02-18T01:21:00.319Z,12.72
2019-02-18T01:23:26.646Z,12.69
2019-02-18T01:25:52.955Z,12.67
2019-02-18T01:28:19.269Z,12.64
2019-02-18T01:30:45.573Z,12.58
2019-02-18T01:33:11.882Z,12.54
2019-02-18T01:35:38.192Z,12.52
2019-02-18T01:38:04.509Z,12.48
2019-02-18T01:40:30.821Z,12.45
2019-02-18T01:42:57.125Z,12.42
2019-02-18T01:45:23.432Z,12.37
2019-02-18T01:47:49.739Z,12.38
2019-02-18T01:50:16.049Z,12.32
2019-02-18T01:52:42.361Z,12.30
2019-02-18T01:55:08.670Z,12.25
2019-02-18T01:57:35.024Z,12.25
2019-02-18T02:00:01.318Z,12.23
2019-02-18T02:02:27.625Z,12.19
2019-02-18T02:04:53.931Z,12.13
2019-02-18T02:07:20.248Z,12.13
2019-02-18T02:09:46.553Z,12.11
2019-02-18T02:12:12.865Z,12.10
2019-02-18T02:14:39.176Z,12.08
2019-02-18T02:17:05.478Z,12.05
2019-02-18T02:19:31.784Z,12.04
2019-02-18T02:21:58.093Z,11.99
2019-02-18T02:24:24.398Z,11.93
2019-02-18T02:26:50.705Z,11.92
2019-02-18T02:29:17.015Z,11.90
2019-02-18T02:31:43.314Z,11.89
2019-02-18T02:34:09.622Z,11.89
2019-02-18T02:36:35.925Z,11.86
2019-02-18T02:39:02.254Z,11.85
2019-02-18T02:41:28.562Z,11.83
2019-02-18T02:43:54.876Z,11.82
2019-02-18T02:46:21.186Z,11.80
2019-02-18T02:48:47.492Z,11.68
2019-02-18T02:51:13.796Z,11.75
2019-02-18T02:53:40.111Z,11.73
2019-02-18T02:56:06.416Z,11.69
2019-02-18T02:58:32.730Z,11.67
2019-02-18T03:00:59.033Z,11.64
2019-02-18T03:03:25.347Z,11.63
2019-02-18T03:05:51.665Z,11.60
2019-02-18T03:08:20.617Z,11.58
2019-02-18T03:10:44.265Z,11.58
2019-02-18T03:13:10.577Z,11.56
2019-02-18T03:15:36.895Z,11.56
2019-02-18T03:18:03.205Z,11.53
2019-02-18T03:20:29.508Z,11.50
2019-02-18T03:22:55.815Z,11.49
2019-02-18T03:25:22.124Z,11.48
2019-02-18T03:27:48.428Z,11.41
2019-02-18T03:30:14.738Z,11.41
2019-02-18T03:32:41.068Z,11.42
2019-02-18T03:35:07.354Z,11.40
2019-02-18T03:37:33.671Z,11.40
2019-02-18T03:39:59.979Z,11.36
2019-02-18T03:42:26.288Z,11.33
2019-02-18T03:44:52.591Z,11.31
2019-02-18T03:47:18.902Z,11.29
2019-02-18T03:49:45.222Z,11.25
2019-02-18T03:52:11.525Z,11.23
2019-02-18T03:54:37.839Z,11.22
2019-02-18T03:57:04.141Z,11.21
2019-02-18T03:59:30.454Z,11.18
2019-02-18T04:01:56.767Z,11.16
2019-02-18T04:04:23.073Z,11.13
2019-02-18T04:06:49.378Z,11.13
2019-02-18T04:09:15.686Z,11.11
2019-02-18T04:11:42.000Z,11.09
2019-02-18T04:14:08.307Z,11.05
2019-02-18T04:16:34.616Z,11.04
2019-02-18T04:19:00.936Z,11.02
2019-02-18T04:21:27.246Z,11.02
2019-02-18T04:23:53.553Z,10.99
2019-02-18T04:26:19.864Z,10.98
2019-02-18T04:28:46.170Z,11.00
2019-02-18T04:31:12.482Z,10.98
2019-02-18T04:33:38.783Z,10.95
2019-02-18T04:36:05.093Z,10.95
2019-02-18T04:38:31.403Z,10.90
2019-02-18T04:40:57.714Z,10.90
2019-02-18T04:43:24.030Z,10.90
2019-02-18T04:45:50.335Z,10.89
2019-02-18T04:48:16.646Z,10.86
2019-02-18T04:50:42.949Z,10.82
2019-02-18T04:53:09.272Z,10.80
2019-02-18T04:55:35.592Z,10.80
2019-02-18T04:58:01.893Z,10.80
2019-02-18T05:00:28.197Z,10.77
2019-02-18T05:02:54.539Z,10.72
2019-02-18T05:05:20.823Z,10.72
2019-02-18T05:07:47.134Z,10.70
2019-02-18T05:10:13.446Z,10.69
2019-02-18T05:12:39.747Z,10.67
2019-02-18T05:15:06.080Z,10.69
2019-02-18T05:17:32.427Z,10.65
2019-02-18T05:19:58.738Z,10.66
2019-02-18T05:22:25.050Z,10.66
2019-02-18T05:24:51.363Z,10.64
2019-02-18T05:27:17.672Z,10.61
2019-02-18T05:29:43.986Z,10.60
2019-02-18T05:32:10.294Z,10.60
2019-02-18T05:34:36.606Z,10.60
2019-02-18T05:37:02.916Z,10.61
2019-02-18T05:39:29.220Z,10.64
2019-02-18T05:41:55.538Z,10.70
2019-02-18T05:44:21.833Z,10.74
2019-02-18T05:46:48.142Z,10.77
2019-02-18T05:49:14.450Z,10.85
2019-02-18T05:51:40.757Z,11.02
2019-02-18T05:54:07.059Z,12.00
2019-02-18T05:56:33.373Z,12.77
2019-02-18T05:58:59.680Z,12.80
2019-02-18T06:01:25.987Z,12.70
2019-02-18T06:03:52.298Z,12.64
2019-02-18T06:06:18.601Z,12.65
2019-02-18T06:08:44.939Z,12.72
2019-02-18T06:11:11.253Z,12.83
2019-02-18T06:13:37.553Z,12.94
2019-02-18T06:16:03.862Z,13.08
2019-02-18T06:18:30.232Z,13.25
2019-02-18T06:20:56.594Z,13.41
2019-02-18T06:23:23.011Z,13.60
2019-02-18T06:25:49.317Z,13.77
2019-02-18T06:28:15.625Z,13.95
2019-02-18T06:30:41.923Z,14.19
2019-02-18T06:33:08.237Z,14.39
2019-02-18T06:35:34.570Z,14.58
2019-02-18T06:38:00.888Z,14.80
2019-02-18T06:40:27.192Z,15.00
2019-02-18T06:42:53.501Z,15.19
2019-02-18T06:45:19.882Z,15.39
2019-02-18T06:47:46.188Z,15.63
2019-02-18T06:50:12.493Z,15.84
2019-02-18T06:52:38.823Z,16.04
2019-02-18T06:55:05.127Z,16.22
2019-02-18T06:57:31.440Z,16.44
2019-02-18T06:59:57.749Z,16.65
2019-02-18T07:02:24.056Z,16.86
2019-02-18T07:04:50.365Z,17.08
2019-02-18T07:07:16.677Z,17.22
2019-02-18T07:09:50.817Z,17.41
2019-02-18T07:12:09.294Z,17.60
2019-02-18T07:14:35.605Z,17.86
2019-02-18T07:17:01.911Z,18.08
2019-02-18T07:19:28.229Z,18.29
2019-02-18T07:21:54.537Z,18.52
2019-02-18T07:24:20.847Z,18.74
2019-02-18T07:26:47.152Z,18.92
2019-02-18T07:29:13.488Z,19.16
2019-02-18T07:31:39.813Z,19.38
2019-02-18T07:34:06.121Z,19.64
2019-02-18T07:36:34.896Z,19.81
2019-02-18T07:38:58.740Z,20.03
2019-02-18T07:41:25.058Z,20.26
2019-02-18T07:43:51.365Z,20.49
2019-02-18T07:46:17.966Z,20.71
2019-02-18T07:48:44.274Z,21.03
2019-02-18T07:51:10.604Z,21.39
2019-02-18T07:53:36.909Z,21.56
2019-02-18T07:56:03.220Z,21.69
2019-02-18T07:58:29.527Z,21.78
2019-02-18T08:00:55.841Z,21.74
2019-02-18T08:03:22.152Z,21.93
2019-02-18T08:05:48.462Z,22.13
2019-02-18T08:08:14.780Z,22.37
2019-02-18T08:10:41.087Z,22.50
2019-02-18T08:13:07.419Z,22.57
2019-02-18T08:15:33.729Z,22.79
2019-02-18T08:18:00.036Z,22.90
2019-02-18T08:20:26.344Z,23.02
2019-02-18T08:22:52.652Z,23.18
2019-02-18T08:25:18.959Z,23.36
2019-02-18T08:27:45.271Z,23.52
2019-02-18T08:30:11.593Z,23.73
2019-02-18T08:32:37.886Z,24.02
2019-02-18T08:35:04.193Z,24.30
2019-02-18T08:37:30.509Z,24.40
2019-02-18T08:39:56.812Z,24.68
2019-02-18T08:42:23.124Z,24.96
2019-02-18T08:44:49.446Z,25.18
2019-02-18T08:47:15.768Z,25.38
2019-02-18T08:49:42.084Z,25.49
2019-02-18T08:52:08.389Z,25.58
2019-02-18T08:54:34.709Z,25.81
2019-02-18T08:57:01.008Z,26.03
2019-02-18T08:59:27.325Z,26.23
2019-02-18T09:01:53.643Z,26.40
2019-02-18T09:04:19.959Z,26.53
2019-02-18T09:06:46.270Z,26.65
2019-02-18T09:09:12.608Z,26.77
2019-02-18T09:11:38.927Z,26.90
2019-02-18T09:14:05.236Z,27.15
2019-02-18T09:16:31.545Z,27.34
2019-02-18T09:18:57.853Z,27.56
2019-02-18T09:21:24.223Z,27.74
2019-02-18T09:23:50.536Z,27.90
2019-02-18T09:26:16.857Z,28.09
2019-02-18T09:28:43.164Z,28.25
2019-02-18T09:31:09.476Z,28.40
2019-02-18T09:33:35.791Z,28.53
2019-02-18T09:36:02.178Z,28.71
2019-02-18T09:38:28.501Z,28.89
2019-02-18T09:40:54.843Z,29.03
2019-02-18T09:43:21.148Z,29.19
2019-02-18T09:45:47.469Z,29.33
2019-02-18T09:48:13.788Z,29.43
2019-02-18T09:50:40.096Z,29.56
2019-02-18T09:53:06.423Z,29.68
2019-02-18T09:55:32.725Z,29.82
2019-02-18T09:57:59.038Z,29.94
2019-02-18T10:00:25.349Z,30.04
2019-02-18T10:02:51.660Z,30.15
2019-02-18T10:05:17.972Z,30.25
2019-02-18T10:07:44.282Z,30.29
2019-02-18T10:10:10.590Z,30.43
2019-02-18T10:12:36.913Z,30.54
2019-02-18T10:15:03.236Z,30.48
2019-02-18T10:17:29.552Z,30.51
2019-02-18T10:19:55.915Z,30.71
2019-02-18T10:22:22.230Z,30.82
2019-02-18T10:24:50.961Z,30.84
2019-02-18T10:27:14.856Z,30.96
2019-02-18T10:29:41.163Z,31.09
2019-02-18T10:32:07.469Z,31.16
2019-02-18T10:34:33.782Z,31.31
2019-02-18T10:37:00.104Z,31.33
2019-02-18T10:39:26.413Z,31.46
2019-02-18T10:41:52.728Z,31.58
2019-02-18T10:44:19.073Z,31.69
2019-02-18T10:46:45.384Z,31.78
2019-02-18T10:49:19.375Z,31.86
2019-02-18T10:51:38.031Z,31.95
2019-02-18T10:54:04.342Z,32.02
2019-02-18T10:56:30.638Z,32.09
2019-02-18T10:58:56.954Z,32.14
2019-02-18T11:01:23.267Z,32.13
2019-02-18T11:03:49.573Z,32.17
2019-02-18T11:06:15.886Z,32.17
2019-02-18T11:08:42.193Z,32.23
2019-02-18T11:11:16.658Z,32.33
2019-02-18T11:13:34.813Z,32.39
2019-02-18T11:16:01.138Z,32.42
2019-02-18T11:18:27.450Z,32.44
2019-02-18T11:20:53.756Z,32.45
2019-02-18T11:23:20.072Z,32.48
2019-02-18T11:25:46.377Z,32.54
2019-02-18T11:28:12.685Z,32.56
2019-02-18T11:30:39.296Z,32.62
2019-02-18T11:33:05.348Z,32.66
2019-02-18T11:35:31.653Z,32.70
2019-02-18T11:37:57.965Z,32.75
2019-02-18T11:40:24.274Z,32.80
2019-02-18T11:42:50.603Z,32.82
2019-02-18T11:45:16.911Z,32.83
2019-02-18T11:47:43.221Z,32.85
2019-02-18T11:50:09.535Z,32.84
2019-02-18T11:52:35.841Z,32.85
2019-02-18T11:55:02.154Z,32.86
2019-02-18T11:57:28.466Z,32.85
2019-02-18T11:59:54.781Z,32.86
2019-02-18T12:02:21.163Z,32.88
2019-02-18T12:04:47.472Z,32.87
2019-02-18T12:07:13.781Z,32.85
2019-02-18T12:09:40.089Z,32.85
2019-02-18T12:12:06.405Z,32.85
2019-02-18T12:14:32.722Z,32.81
2019-02-18T12:16:59.033Z,32.78
2019-02-18T12:19:25.362Z,32.80
2019-02-18T12:21:51.675Z,32.80
2019-02-18T12:24:17.973Z,32.77
2019-02-18T12:26:44.284Z,32.76
2019-02-18T12:29:10.592Z,32.73
2019-02-18T12:31:36.903Z,32.70
2019-02-18T12:34:03.214Z,32.67
2019-02-18T12:36:29.521Z,32.64
2019-02-18T12:38:55.837Z,32.59
2019-02-18T12:41:22.187Z,32.56
2019-02-18T12:43:48.461Z,32.53
2019-02-18T12:46:16.094Z,32.49
2019-02-18T12:48:41.077Z,32.45
2019-02-18T12:51:07.400Z,32.41
2019-02-18T12:53:33.702Z,32.38
2019-02-18T12:56:00.008Z,32.33
2019-02-18T12:58:26.321Z,32.30
2019-02-18T13:00:52.660Z,32.24
2019-02-18T13:03:18.979Z,32.19
2019-02-18T13:05:45.267Z,32.15
2019-02-18T13:08:11.577Z,32.11
2019-02-18T13:10:37.886Z,32.08
2019-02-18T13:13:04.192Z,32.01
2019-02-18T13:15:30.495Z,31.96
2019-02-18T13:17:56.804Z,31.89
2019-02-18T13:20:23.113Z,31.80
2019-02-18T13:22:49.425Z,31.73
2019-02-18T13:25:15.735Z,31.66
2019-02-18T13:27:42.039Z,31.59
2019-02-18T13:30:08.349Z,31.51
2019-02-18T13:32:34.660Z,31.45
2019-02-18T13:35:00.984Z,31.38
2019-02-18T13:37:27.299Z,31.29
2019-02-18T13:39:53.621Z,31.21
2019-02-18T13:42:19.932Z,31.12
2019-02-18T13:44:46.240Z,31.04
2019-02-18T13:47:12.557Z,30.94
2019-02-18T13:49:38.862Z,30.84
2019-02-18T13:52:05.178Z,30.75
2019-02-18T13:54:31.483Z,30.59
2019-02-18T13:56:57.793Z,30.49
2019-02-18T13:59:24.105Z,30.35
2019-02-18T14:01:50.430Z,30.20
2019-02-18T14:04:16.730Z,30.01
2019-02-18T14:06:43.035Z,29.85
2019-02-18T14:09:09.363Z,29.70
2019-02-18T14:11:35.669Z,29.55
2019-02-18T14:14:02.588Z,29.40
2019-02-18T14:16:29.245Z,29.27
2019-02-18T14:18:55.749Z,29.14
2019-02-18T14:21:22.029Z,29.00
2019-02-18T14:23:48.347Z,28.88
2019-02-18T14:26:14.652Z,28.75
2019-02-18T14:28:40.965Z,28.63
2019-02-18T14:31:07.285Z,28.50
2019-02-18T14:33:33.613Z,28.36
2019-02-18T14:35:59.921Z,28.23
2019-02-18T14:38:26.233Z,28.13
2019-02-18T14:40:52.538Z,28.03
2019-02-18T14:43:18.865Z,27.95
2019-02-18T14:45:45.186Z,27.87
2019-02-18T14:48:11.504Z,27.76
2019-02-18T14:50:37.874Z,27.81
2019-02-18T14:53:04.185Z,27.73
2019-02-18T14:55:30.508Z,27.60
2019-02-18T14:57:56.817Z,27.52
2019-02-18T15:00:23.139Z,27.46
2019-02-18T15:02:49.450Z,27.39
2019-02-18T15:05:15.765Z,27.31
2019-02-18T15:07:42.080Z,27.24
2019-02-18T15:10:08.390Z,27.18
2019-02-18T15:12:34.701Z,27.13
2019-02-18T15:15:01.089Z,27.05
2019-02-18T15:17:27.402Z,26.96
2019-02-18T15:19:53.714Z,26.87
2019-02-18T15:22:20.030Z,26.74
2019-02-18T15:24:46.336Z,26.76
2019-02-18T15:27:12.660Z,26.70
2019-02-18T15:29:38.975Z,26.61
2019-02-18T15:32:05.288Z,26.52
2019-02-18T15:34:31.600Z,26.44
2019-02-18T15:36:57.917Z,26.31
2019-02-18T15:39:24.233Z,26.31
2019-02-18T15:41:50.541Z,26.22
2019-02-18T15:44:16.860Z,26.12
2019-02-18T15:46:43.168Z,26.02
2019-02-18T15:49:09.477Z,25.97
2019-02-18T15:51:35.784Z,25.90
2019-02-18T15:54:02.095Z,25.83
2019-02-18T15:56:28.407Z,25.78
2019-02-18T15:58:54.713Z,25.71
2019-02-18T16:01:21.036Z,25.64
2019-02-18T16:03:47.347Z,24.46
2019-02-18T16:06:13.666Z,22.98
2019-02-18T16:08:39.974Z,22.05
2019-02-18T16:11:06.283Z,21.38
2019-02-18T16:13:32.595Z,21.62
2019-02-18T16:15:58.914Z,22.37
2019-02-18T16:18:25.230Z,22.87
2019-02-18T16:20:51.549Z,23.19
2019-02-18T16:23:17.855Z,23.38
2019-02-18T16:25:44.173Z,23.46
2019-02-18T16:28:10.515Z,23.50
2019-02-18T16:30:36.805Z,23.44
2019-02-18T16:33:03.128Z,23.53
2019-02-18T16:35:29.431Z,23.57
2019-02-18T16:37:55.740Z,23.55
2019-02-18T16:40:22.047Z,23.49
2019-02-18T16:42:48.355Z,23.44
2019-02-18T16:45:14.661Z,23.39
2019-02-18T16:47:40.973Z,23.33
2019-02-18T16:50:07.283Z,23.41
2019-02-18T16:52:33.589Z,23.35
2019-02-18T16:54:59.910Z,23.25
2019-02-18T16:57:26.213Z,23.16
2019-02-18T16:59:52.677Z,23.09
2019-02-18T17:02:18.984Z,23.03
2019-02-18T17:04:45.301Z,22.98
2019-02-18T17:07:11.611Z,22.89
2019-02-18T17:09:37.920Z,22.84
2019-02-18T17:12:04.229Z,22.78
2019-02-18T17:14:30.537Z,22.70
2019-02-18T17:16:56.850Z,22.67
2019-02-18T17:19:23.157Z,22.61
2019-02-18T17:21:49.497Z,22.56
2019-02-18T17:24:15.840Z,22.52
2019-02-18T17:26:42.111Z,22.48
2019-02-18T17:29:08.424Z,22.40
2019-02-18T17:31:34.730Z,22.22
2019-02-18T17:34:01.047Z,21.37
2019-02-18T17:36:27.352Z,21.20
2019-02-18T17:38:53.661Z,21.37
2019-02-18T17:41:19.971Z,21.51
2019-02-18T17:43:46.309Z,21.60
2019-02-18T17:46:12.617Z,21.64
2019-02-18T17:48:38.987Z,21.67
2019-02-18T17:51:05.333Z,21.66
2019-02-18T17:53:31.638Z,21.62
2019-02-18T17:55:57.946Z,21.62
2019-02-18T17:58:24.264Z,21.60
2019-02-18T18:00:50.569Z,21.56
2019-02-18T18:03:16.875Z,21.50
2019-02-18T18:05:44.613Z,21.46
2019-02-18T18:08:09.509Z,21.44
2019-02-18T18:10:35.816Z,21.39
2019-02-18T18:13:02.123Z,21.30
2019-02-18T18:15:28.434Z,21.28
2019-02-18T18:17:54.734Z,21.23
2019-02-18T18:20:21.043Z,21.21
2019-02-18T18:22:47.352Z,21.15
2019-02-18T18:25:13.664Z,21.09
2019-02-18T18:27:39.996Z,21.01
2019-02-18T18:30:06.307Z,20.98
2019-02-18T18:32:32.611Z,20.93
2019-02-18T18:34:58.919Z,20.88
2019-02-18T18:37:25.235Z,20.82
2019-02-18T18:39:51.556Z,20.77
2019-02-18T18:42:17.858Z,20.72
2019-02-18T18:44:44.174Z,20.67
2019-02-18T18:47:10.475Z,20.64
2019-02-18T18:49:36.874Z,20.57
2019-02-18T18:52:03.176Z,20.54
2019-02-18T18:54:29.480Z,20.51
2019-02-18T18:56:55.791Z,20.46
2019-02-18T18:59:22.102Z,20.40
2019-02-18T19:01:48.407Z,20.35
2019-02-18T19:04:14.710Z,20.31
2019-02-18T19:06:41.022Z,20.26
2019-02-18T19:09:07.329Z,20.22
2019-02-18T19:11:33.660Z,20.16
2019-02-18T19:13:59.972Z,20.12
2019-02-18T19:16:26.276Z,20.05
2019-02-18T19:18:52.584Z,20.00
2019-02-18T19:21:18.903Z,19.95
2019-02-18T19:23:45.235Z,19.89
2019-02-18T19:26:11.544Z,19.86
2019-02-18T19:28:37.853Z,19.88
2019-02-18T19:31:04.169Z,19.96
2019-02-18T19:33:30.475Z,19.91
2019-02-18T19:35:56.785Z,19.82
2019-02-18T19:38:23.103Z,19.73
2019-02-18T19:40:49.397Z,19.63
2019-02-18T19:43:15.702Z,19.57
2019-02-18T19:45:42.328Z,19.57
2019-02-18T19:48:08.634Z,19.55
2019-02-18T19:50:37.937Z,19.50
2019-02-18T19:53:04.243Z,19.44
2019-02-18T19:55:30.547Z,19.39
2019-02-18T19:57:56.856Z,19.35
2019-02-18T20:00:23.167Z,19.30
2019-02-18T20:02:49.474Z,19.25
2019-02-18T20:05:15.780Z,19.22
2019-02-18T20:07:44.049Z,19.17
2019-02-18T20:10:08.400Z,19.12
2019-02-18T20:12:34.743Z,19.05
2019-02-18T20:15:01.057Z,19.03
2019-02-18T20:17:27.368Z,18.98
2019-02-18T20:19:54.040Z,18.93
2019-02-18T20:22:20.396Z,18.88
2019-02-18T20:24:46.703Z,18.86
2019-02-18T20:27:13.011Z,18.84
2019-02-18T20:29:39.316Z,18.77
2019-02-18T20:32:05.618Z,18.75
2019-02-18T20:34:31.934Z,18.69
2019-02-18T20:36:58.239Z,18.65
2019-02-18T20:39:24.545Z,18.61
2019-02-18T20:41:51.551Z,18.61
2019-02-18T20:44:17.184Z,18.53
2019-02-18T20:46:43.482Z,18.50
2019-02-18T20:49:09.826Z,18.47
2019-02-18T20:51:36.128Z,18.41
2019-02-18T20:54:02.431Z,18.36
2019-02-18T20:56:28.737Z,18.33
2019-02-18T20:58:55.045Z,18.29
2019-02-18T21:01:21.352Z,18.26
2019-02-18T21:03:47.662Z,18.20
2019-02-18T21:06:13.978Z,18.16
2019-02-18T21:08:40.279Z,18.11
2019-02-18T21:11:06.583Z,18.08
2019-02-18T21:13:32.897Z,18.04
2019-02-18T21:15:59.204Z,18.01
2019-02-18T21:18:25.516Z,17.98
2019-02-18T21:20:51.840Z,17.95
2019-02-18T21:23:18.141Z,17.93
2019-02-18T21:25:44.438Z,17.84
2019-02-18T21:28:10.739Z,17.81
2019-02-18T21:30:37.052Z,17.76
2019-02-18T21:33:03.358Z,17.70
2019-02-18T21:35:29.665Z,17.63
2019-02-18T21:37:55.975Z,17.59
2019-02-18T21:40:22.282Z,17.59
2019-02-18T21:42:48.582Z,17.56
2019-02-18T21:45:14.921Z,17.52
2019-02-18T21:47:41.227Z,17.48
2019-02-18T21:50:07.541Z,17.44
2019-02-18T21:52:33.866Z,17.40
2019-02-18T21:55:00.326Z,17.35
2019-02-18T21:57:26.500Z,17.32
2019-02-18T21:59:52.821Z,17.24
2019-02-18T22:02:19.126Z,17.25
2019-02-18T22:04:45.431Z,17.25
2019-02-18T22:07:11.740Z,17.22
2019-02-18T22:09:38.062Z,17.18
2019-02-18T22:12:04.363Z,17.14
2019-02-18T22:14:33.629Z,17.12
2019-02-18T22:16:56.996Z,17.04
2019-02-18T22:19:23.308Z,17.02
2019-02-18T22:21:49.653Z,16.99
2019-02-18T22:24:15.958Z,16.96
2019-02-18T22:26:42.263Z,16.93
2019-02-18T22:29:08.647Z,16.87
2019-02-18T22:31:34.967Z,16.84
2019-02-18T22:34:01.287Z,16.79
2019-02-18T22:36:27.596Z,16.81
2019-02-18T22:38:53.908Z,16.79
2019-02-18T22:41:20.219Z,16.75
2019-02-18T22:43:46.608Z,16.72
2019-02-18T22:46:12.919Z,16.68
2019-02-18T22:48:39.231Z,16.61
2019-02-18T22:51:05.540Z,16.60
2019-02-18T22:53:31.848Z,16.54
2019-02-18T22:55:58.157Z,16.52
2019-02-18T22:58:24.525Z,16.50
2019-02-18T23:00:50.830Z,16.47
2019-02-18T23:03:17.139Z,16.43
2019-02-18T23:05:43.456Z,16.41
2019-02-18T23:08:09.785Z,16.40
2019-02-18T23:10:36.095Z,16.37
2019-02-18T23:13:02.397Z,16.32
2019-02-18T23:15:28.708Z,16.27
2019-02-18T23:17:55.013Z,16.20
2019-02-18T23:20:21.327Z,16.11
2019-02-18T23:22:47.637Z,16.05
2019-02-18T23:25:13.947Z,15.99
2019-02-18T23:27:40.259Z,15.93
2019-02-18T23:30:06.576Z,15.84
2019-02-18T23:32:32.883Z,15.76
2019-02-18T23:34:59.191Z,15.75
2019-02-18T23:37:25.500Z,15.73
2019-02-18T23:39:51.807Z,15.68
2019-02-18T23:42:18.111Z,15.64
2019-02-18T23:44:44.419Z,15.64
2019-02-18T23:47:10.726Z,15.61
2019-02-18T23:49:37.034Z,15.59
2019-02-18T23:52:03.342Z,15.57
2019-02-18T23:54:29.653Z,15.51
2019-02-18T23:56:55.968Z,15.49
2019-02-18T23:59:22.282Z,15.45
